Time;durP1;ratioP1;P1;durP2;ratioP2;P2;SDS_P1;SDS_P2;PMS_P1;PMS_P2;Temp;Humidity;BMP_temperature;BMP_pressure;BME280_temperature;BME280_humidity;BME280_pressure;Samples;Min_cycle;Max_cycle;Signal;HPM_P1;HPM_P2
2023/06/19 00:00:12;;;;;;;22.40;11.60;;;;;;;15.48;100.00;100269.80;105844;1257;65291;-43
2023/06/19 00:02:42;;;;;;;28.30;12.70;;;;;;;15.48;100.00;100263.91;105874;1257;71695;-42
2023/06/19 00:05:11;;;;;;;21.00;12.70;;;;;;;15.48;100.00;100260.45;105877;1256;60341;-42
2023/06/19 00:07:39;;;;;;;26.00;13.40;;;;;;;15.47;100.00;100261.32;105862;1256;60388;-41
2023/06/19 00:10:07;;;;;;;30.70;14.30;;;;;;;15.46;100.00;100263.30;105870;1251;72617;-42
2023/06/19 00:12:36;;;;;;;27.50;13.30;;;;;;;15.44;100.00;100263.39;105895;1255;65152;-42
2023/06/19 00:15:04;;;;;;;27.20;14.20;;;;;;;15.44;100.00;100268.45;105893;1256;71442;-41
2023/06/19 00:17:32;;;;;;;26.30;14.30;;;;;;;15.40;100.00;100268.22;105903;1256;60521;-42
2023/06/19 00:20:00;;;;;;;27.60;14.40;;;;;;;15.36;100.00;100275.73;105883;1257;60382;-42
2023/06/19 00:22:28;;;;;;;32.50;15.30;;;;;;;15.29;100.00;100289.91;105891;1256;73814;-42
2023/06/19 00:24:55;;;;;;;45.40;17.00;;;;;;;15.22;100.00;100304.23;105836;1252;63925;-42
2023/06/19 00:27:24;;;;;;;30.60;14.90;;;;;;;15.16;100.00;100306.23;105877;1257;71718;-42
2023/06/19 00:29:52;;;;;;;31.60;15.70;;;;;;;15.14;100.00;100296.92;105865;1256;61632;-42
2023/06/19 00:32:20;;;;;;;39.20;15.60;;;;;;;15.13;100.00;100288.98;105977;1252;60328;-42
2023/06/19 00:34:48;;;;;;;29.40;14.80;;;;;;;15.11;100.00;100281.41;105920;1251;72553;-42
2023/06/19 00:37:16;;;;;;;28.20;14.10;;;;;;;15.08;100.00;100281.02;105881;1257;65346;-42
2023/06/19 00:39:43;;;;;;;29.80;13.90;;;;;;;15.05;100.00;100279.39;105854;1257;72590;-42
2023/06/19 00:42:11;;;;;;;26.60;12.80;;;;;;;15.01;100.00;100280.05;105667;1254;60524;-42
2023/06/19 00:44:39;;;;;;;24.00;12.80;;;;;;;14.99;100.00;100275.30;105878;1252;60425;-42
2023/06/19 00:47:06;;;;;;;23.10;11.80;;;;;;;14.97;100.00;100267.38;105675;1255;73887;-42
2023/06/19 00:49:34;;;;;;;29.60;12.80;;;;;;;14.95;100.00;100261.52;105860;1254;63940;-42
2023/06/19 00:52:02;;;;;;;28.70;12.50;;;;;;;14.93;100.00;100255.02;105715;1252;72735;-42
2023/06/19 00:54:30;;;;;;;31.20;12.20;;;;;;;14.91;100.00;100249.70;105774;1254;60419;-42
2023/06/19 00:56:57;;;;;;;32.30;12.40;;;;;;;14.91;100.00;100253.38;105891;1254;60379;-42
2023/06/19 00:59:25;;;;;;;24.50;11.80;;;;;;;14.91;100.00;100254.92;105850;1257;71810;-42
2023/06/19 01:01:53;;;;;;;29.40;11.80;;;;;;;14.88;100.00;100271.02;105653;1255;64475;-42
2023/06/19 01:04:20;;;;;;;25.50;12.00;;;;;;;14.83;100.00;100286.49;105696;1253;72756;-42
2023/06/19 01:06:52;;;;;;;17.30;10.40;;;;;;;14.77;100.00;100310.53;105935;1257;60528;-42
2023/06/19 01:09:19;;;;;;;22.40;12.00;;;;;;;14.69;100.00;100333.71;105693;1257;60343;-42
2023/06/19 01:11:51;;;;;;;15.20;10.80;;;;;;;14.61;100.00;100348.59;105696;1256;73826;-42
2023/06/19 01:14:25;;;;;;;14.60;10.00;;;;;;;14.56;100.00;100362.67;105891;1252;65104;-42
2023/06/19 01:16:54;;;;;;;20.80;11.90;;;;;;;14.49;100.00;100379.06;105865;1253;71438;-42
2023/06/19 01:19:26;;;;;;;27.80;11.60;;;;;;;14.39;100.00;100392.95;105881;1254;60623;-42
2023/06/19 01:21:53;;;;;;;23.00;10.80;;;;;;;14.32;100.00;100424.10;105690;1254;60348;-42
2023/06/19 01:24:21;;;;;;;19.80;11.60;;;;;;;14.26;100.00;100472.38;105845;1254;73786;-42
2023/06/19 01:26:49;;;;;;;19.50;10.60;;;;;;;14.20;100.00;100516.48;105870;1254;65317;-42
2023/06/19 01:29:17;;;;;;;19.00;11.10;;;;;;;14.15;100.00;100541.12;105706;1257;71666;-42
2023/06/19 01:32:02;;;;;;;16.90;10.50;;;;;;;14.08;100.00;100561.45;105907;1256;60398;-43
2023/06/19 01:34:30;;;;;;;18.60;10.30;;;;;;;14.01;100.00;100583.88;105846;1257;60415;-43
2023/06/19 01:36:58;;;;;;;17.10;9.90;;;;;;;13.96;100.00;100606.42;105703;1254;73070;-43
2023/06/19 01:39:26;;;;;;;20.40;10.30;;;;;;;13.91;100.00;100636.92;105662;1260;64096;-42
2023/06/19 01:41:54;;;;;;;20.80;9.40;;;;;;;13.85;100.00;100669.70;105749;1253;71439;-43
2023/06/19 01:44:23;;;;;;;19.70;9.60;;;;;;;13.81;100.00;100705.73;105647;1253;60494;-43
2023/06/19 01:46:51;;;;;;;13.90;9.50;;;;;;;13.79;100.00;100741.15;105742;1255;60431;-42
2023/06/19 01:49:19;;;;;;;16.00;9.50;;;;;;;13.77;100.00;100774.50;105824;1257;73834;-43
2023/06/19 01:51:47;;;;;;;16.40;9.00;;;;;;;13.75;100.00;100807.84;105866;1257;65265;-42
2023/06/19 01:54:15;;;;;;;15.00;9.60;;;;;;;13.73;100.00;100840.52;105816;1254;71657;-43
2023/06/19 01:56:43;;;;;;;19.40;9.90;;;;;;;13.73;100.00;100872.09;105829;1254;60510;-42
2023/06/19 01:59:11;;;;;;;14.90;9.60;;;;;;;13.71;100.00;100898.49;105737;1254;60358;-42
2023/06/19 02:01:39;;;;;;;14.00;9.20;;;;;;;13.70;100.00;100918.98;105732;1254;73837;-42
2023/06/19 02:04:07;;;;;;;17.40;9.10;;;;;;;13.69;100.00;100932.89;105788;1258;64345;-43
2023/06/19 02:06:37;;;;;;;18.40;9.10;;;;;;;13.69;100.00;100947.45;105869;1258;71789;-43
2023/06/19 02:09:05;;;;;;;15.60;9.50;;;;;;;13.71;100.00;100960.94;105615;1254;60411;-41
2023/06/19 02:11:33;;;;;;;18.40;9.40;;;;;;;13.71;100.00;100968.20;105776;1254;60903;-48
2023/06/19 02:14:01;;;;;;;12.50;8.80;;;;;;;13.71;100.00;100974.98;105850;1253;72608;-46
2023/06/19 02:16:29;;;;;;;20.20;8.40;;;;;;;13.72;100.00;100982.94;105826;1257;65276;-41
2023/06/19 02:18:57;;;;;;;15.70;8.90;;;;;;;13.73;100.00;100991.40;105847;1257;71386;-43
2023/06/19 02:21:24;;;;;;;14.60;8.90;;;;;;;13.76;100.00;101003.66;105640;1254;60807;-41
2023/06/19 02:23:53;;;;;;;15.40;8.90;;;;;;;13.80;100.00;101005.83;105665;1254;60322;-42
2023/06/19 02:26:22;;;;;;;15.90;8.90;;;;;;;13.82;100.00;101016.52;105708;1253;72771;-42
2023/06/19 02:28:49;;;;;;;15.30;9.40;;;;;;;13.84;100.00;101018.42;105665;1258;63990;-42
2023/06/19 02:31:17;;;;;;;16.30;9.20;;;;;;;13.85;100.00;101020.30;105620;1258;71438;-42
2023/06/19 02:33:46;;;;;;;18.90;9.60;;;;;;;13.87;100.00;101027.17;105667;1253;60404;-42
2023/06/19 02:36:18;;;;;;;18.20;9.20;;;;;;;13.90;100.00;101033.17;105404;1253;334956;-42
2023/06/19 02:39:29;;;;;;;17.40;9.00;;;;;;;13.97;100.00;101056.61;102730;1292;600816;-41
2023/06/19 02:41:57;;;;;;;14.70;9.00;;;;;;;14.00;100.00;101030.52;104866;1267;61815;-42
2023/06/19 02:44:28;;;;;;;18.20;8.90;;;;;;;14.05;100.00;101029.55;104855;1270;60041;-41
2023/06/19 02:46:56;;;;;;;15.00;8.80;;;;;;;14.12;100.00;101028.68;104860;1266;71015;-43
2023/06/19 02:49:24;;;;;;;16.70;9.10;;;;;;;14.19;100.00;101032.14;104862;1269;63934;-43
2023/06/19 02:51:52;;;;;;;18.00;9.00;;;;;;;14.28;100.00;101029.52;104767;1266;71722;-43
2023/06/19 02:54:20;;;;;;;17.70;9.10;;;;;;;14.37;100.00;101028.24;104821;1267;61150;-43
2023/06/19 02:56:48;;;;;;;17.90;9.30;;;;;;;14.48;100.00;101035.94;104913;1264;60036;-43
2023/06/19 02:59:17;;;;;;;11.40;9.20;;;;;;;14.59;100.00;101039.84;105187;1263;70903;-42
2023/06/19 03:01:45;;;;;;;12.10;8.40;;;;;;;14.70;100.00;101040.45;105153;1268;65189;-43
2023/06/19 03:04:13;;;;;;;20.20;8.30;;;;;;;14.82;100.00;101043.63;105204;1263;71725;-42
2023/06/19 03:06:41;;;;;;;12.90;8.50;;;;;;;14.92;100.00;101043.34;104909;1269;59704;-43
2023/06/19 03:09:12;;;;;;;14.30;8.20;;;;;;;15.05;100.00;101043.51;105150;1269;59551;-42
2023/06/19 03:11:40;;;;;;;10.80;8.20;;;;;;;15.20;100.00;101047.27;105198;1263;73209;-43
2023/06/19 03:14:09;;;;;;;10.40;7.90;;;;;;;15.35;100.00;101039.73;105188;1267;65276;-43
2023/06/19 03:16:37;;;;;;;12.60;8.20;;;;;;;15.49;100.00;101021.40;105225;1264;70590;-42
2023/06/19 03:19:05;;;;;;;10.30;8.30;;;;;;;15.63;100.00;100996.46;105206;1260;59709;-43
2023/06/19 03:21:35;;;;;;;14.40;8.10;;;;;;;15.75;100.00;100955.02;105276;1265;60029;-43
2023/06/19 03:24:04;;;;;;;11.80;7.60;;;;;;;15.88;100.00;100905.71;105257;1266;70905;-42
2023/06/19 03:26:32;;;;;;;11.60;7.50;;;;;;;16.02;100.00;100841.20;105243;1259;64345;-43
2023/06/19 03:29:01;;;;;;;12.20;7.40;;;;;;;16.17;100.00;100748.93;105281;1264;72652;-43
2023/06/19 03:31:36;;;;;;;18.30;7.60;;;;;;;16.34;100.00;100659.69;105301;1261;59716;-43
2023/06/19 03:34:05;;;;;;;13.10;6.90;;;;;;;16.49;100.00;100590.83;105499;1262;59528;-43
2023/06/19 03:36:33;;;;;;;14.30;7.80;;;;;;;16.66;100.00;100516.94;105607;1262;72083;-43
2023/06/19 03:39:07;;;;;;;30.90;8.20;;;;;;;16.90;100.00;100448.64;105580;1259;65304;-43
2023/06/19 03:41:36;;;;;;;12.50;7.80;;;;;;;17.25;100.00;100381.19;105626;1260;72679;-43
2023/06/19 03:44:04;;;;;;;19.80;8.10;;;;;;;17.66;100.00;100314.33;105458;1261;59643;-43
2023/06/19 03:46:32;;;;;;;13.40;6.90;;;;;;;18.07;100.00;100263.38;105621;1260;59538;-43
2023/06/19 03:49:00;;;;;;;16.10;7.90;;;;;;;18.45;100.00;100227.47;105573;1258;72269;-43
2023/06/19 03:51:28;;;;;;;16.50;6.50;;;;;;;18.81;100.00;100227.42;105407;1257;63832;-43
2023/06/19 03:53:56;;;;;;;9.80;6.70;;;;;;;19.16;100.00;100256.42;105613;1260;70771;-43
2023/06/19 03:56:25;;;;;;;15.50;6.80;;;;;;;19.49;100.00;100305.26;105622;1262;59996;-43
2023/06/19 03:58:53;;;;;;;14.50;6.20;;;;;;;19.75;100.00;100362.21;105456;1262;59385;-43
2023/06/19 04:01:22;;;;;;;7.40;5.70;;;;;;;19.99;100.00;100414.44;105612;1260;71824;-44
2023/06/19 04:03:49;;;;;;;15.20;6.70;;;;;;;20.22;100.00;100458.81;105434;1262;65214;-43
2023/06/19 04:06:17;;;;;;;11.20;5.50;;;;;;;20.44;100.00;100486.42;105522;1262;71383;-43
2023/06/19 04:08:45;;;;;;;9.50;6.00;;;;;;;20.64;100.00;100509.58;105433;1262;59729;-43
2023/06/19 04:11:13;;;;;;;8.20;6.10;;;;;;;20.86;100.00;100525.49;105664;1262;59618;-43
2023/06/19 04:13:41;;;;;;;9.40;5.60;;;;;;;21.07;100.00;100547.04;105489;1257;72987;-43
2023/06/19 04:16:09;;;;;;;11.30;5.60;;;;;;;21.29;100.00;100549.41;105459;1262;64009;-43
2023/06/19 04:18:37;;;;;;;16.20;5.90;;;;;;;21.48;99.64;100562.94;105583;1262;71391;-43
2023/06/19 04:21:05;;;;;;;16.10;5.80;;;;;;;21.61;93.53;100568.67;105409;1262;59742;-44
2023/06/19 04:23:34;;;;;;;7.50;5.50;;;;;;;21.78;91.71;100580.25;105588;1256;60070;-43
2023/06/19 04:26:02;;;;;;;13.90;6.10;;;;;;;22.01;82.83;100567.92;105516;1258;73040;-44
2023/06/19 04:28:30;;;;;;;10.40;6.40;;;;;;;22.17;75.28;100562.89;105608;1261;64079;-44
2023/06/19 04:31:01;;;;;;;16.60;6.20;;;;;;;22.27;74.41;100580.50;105633;1257;72156;-42
2023/06/19 04:33:29;;;;;;;14.90;5.60;;;;;;;22.42;73.85;100591.43;105606;1256;60522;-42
2023/06/19 04:35:57;;;;;;;15.30;5.80;;;;;;;22.59;73.05;100593.51;105690;1259;59705;-42
2023/06/19 04:38:25;;;;;;;16.60;6.70;;;;;;;22.76;70.60;100576.89;105583;1257;71748;-43
2023/06/19 04:40:52;;;;;;;15.20;5.60;;;;;;;22.92;67.40;100552.40;105332;1267;64071;-49
2023/06/19 04:43:20;;;;;;;14.70;5.90;;;;;;;23.08;66.71;100570.88;105621;1257;71460;-47
2023/06/19 04:45:48;;;;;;;9.50;5.70;;;;;;;23.25;64.93;100551.22;105593;1257;60014;-43
2023/06/19 04:48:16;;;;;;;18.80;6.20;;;;;;;23.39;63.65;100541.81;105582;1257;59617;-42
2023/06/19 04:50:44;;;;;;;16.30;6.00;;;;;;;23.47;62.10;100533.87;105577;1257;72952;-43
2023/06/19 04:53:11;;;;;;;10.30;5.60;;;;;;;23.59;61.67;100538.14;105613;1257;64322;-42
2023/06/19 04:55:39;;;;;;;15.30;5.60;;;;;;;23.74;61.16;100545.30;105595;1258;71466;-43
2023/06/19 04:58:07;;;;;;;11.90;5.40;;;;;;;23.86;59.52;100505.17;105666;1263;59740;-43
2023/06/19 05:00:35;;;;;;;14.20;5.90;;;;;;;23.95;59.05;100513.63;105583;1263;60083;-43
2023/06/19 05:03:03;;;;;;;14.40;5.60;;;;;;;24.10;58.69;100512.06;105653;1261;71835;-42
2023/06/19 05:05:30;;;;;;;11.60;5.10;;;;;;;24.29;59.35;100552.06;105593;1261;65286;-42
2023/06/19 05:07:59;;;;;;;23.50;5.30;;;;;;;24.47;58.28;100518.14;105590;1264;72734;-43
2023/06/19 05:10:27;;;;;;;17.90;5.90;;;;;;;24.62;57.03;100474.46;105842;1255;60241;-43
2023/06/19 05:12:55;;;;;;;17.40;5.20;;;;;;;24.74;56.54;100482.58;105900;1256;59592;-43
2023/06/19 05:15:23;;;;;;;16.90;5.50;;;;;;;24.84;56.01;100474.20;105834;1254;71771;-43
2023/06/19 05:17:50;;;;;;;10.90;5.20;;;;;;;24.95;55.32;100450.58;105849;1254;63899;-42
2023/06/19 05:20:18;;;;;;;20.80;5.90;;;;;;;25.07;55.19;100466.75;105828;1258;71404;-43
2023/06/19 05:22:46;;;;;;;17.20;5.40;;;;;;;25.23;55.57;100498.90;105814;1260;59733;-42
2023/06/19 05:25:14;;;;;;;15.80;5.40;;;;;;;25.41;54.12;100425.19;105849;1254;59953;-43
2023/06/19 05:27:41;;;;;;;14.20;5.00;;;;;;;25.51;53.29;100388.23;105849;1259;71791;-43
2023/06/19 05:30:10;;;;;;;19.90;5.40;;;;;;;25.59;53.00;100391.28;105872;1257;64063;-43
2023/06/19 05:32:37;;;;;;;19.60;5.40;;;;;;;25.73;53.49;100447.05;105986;1258;71403;-43
2023/06/19 05:35:06;;;;;;;19.00;5.30;;;;;;;25.85;53.31;100442.34;105823;1259;59714;-42
2023/06/19 05:37:34;;;;;;;20.90;5.30;;;;;;;25.99;51.76;100343.44;105853;1260;59602;-43
2023/06/19 05:40:01;;;;;;;13.90;5.90;;;;;;;26.07;52.22;100388.73;105829;1257;72172;-43
2023/06/19 05:42:29;;;;;;;19.70;5.30;;;;;;;26.10;52.16;100400.83;105887;1252;65229;-43
2023/06/19 05:44:57;;;;;;;17.40;6.00;;;;;;;26.26;52.31;100428.64;105843;1256;71940;-43
2023/06/19 05:47:25;;;;;;;17.90;4.80;;;;;;;26.56;52.05;100411.73;105883;1257;59745;-43
2023/06/19 05:49:53;;;;;;;18.30;5.50;;;;;;;26.78;51.09;100343.04;105920;1254;60019;-43
2023/06/19 05:52:21;;;;;;;15.20;4.90;;;;;;;26.76;50.94;100330.41;105878;1257;71379;-43
2023/06/19 05:54:49;;;;;;;8.40;4.50;;;;;;;26.76;50.62;100319.50;105915;1253;63920;-43
2023/06/19 05:57:20;;;;;;;16.60;4.30;;;;;;;26.79;50.40;100324.66;105928;1257;71376;-43
2023/06/19 05:59:49;;;;;;;16.80;4.60;;;;;;;26.93;50.18;100319.05;105905;1256;59717;-43
2023/06/19 06:02:19;;;;;;;18.00;5.40;;;;;;;26.97;49.02;100219.92;105979;1256;59656;-43
2023/06/19 06:04:46;;;;;;;20.30;4.90;;;;;;;27.03;49.21;100245.40;105942;1255;72966;-44
2023/06/19 06:07:14;;;;;;;16.20;3.80;;;;;;;27.14;49.01;100245.64;105895;1258;63918;-47
2023/06/19 06:09:42;;;;;;;9.10;3.40;;;;;;;27.23;48.83;100224.83;105867;1254;70680;-43
2023/06/19 06:12:10;;;;;;;12.20;3.70;;;;;;;27.24;48.29;100191.56;105853;1259;59638;-45
2023/06/19 06:14:37;;;;;;;9.80;3.80;;;;;;;27.19;48.75;100244.63;105875;1255;59632;-43
2023/06/19 06:17:05;;;;;;;12.50;3.70;;;;;;;27.23;48.05;100184.95;105843;1257;72114;-44
2023/06/19 06:19:33;;;;;;;7.60;3.10;;;;;;;27.25;47.01;100081.30;105859;1256;65132;-43
2023/06/19 06:22:01;;;;;;;5.80;3.20;;;;;;;27.18;47.20;100116.66;105849;1256;72712;-43
2023/06/19 06:24:29;;;;;;;9.40;3.00;;;;;;;27.08;47.22;100141.88;105909;1254;60036;-43
2023/06/19 06:26:58;;;;;;;8.40;3.60;;;;;;;26.99;47.26;100162.39;105889;1254;60437;-43
2023/06/19 06:29:26;;;;;;;7.80;3.40;;;;;;;27.03;47.13;100188.24;105928;1254;70961;-42
2023/06/19 06:32:05;;;;;;;8.40;2.90;;;;;;;27.04;47.68;100222.51;105883;1257;65152;-42
2023/06/19 06:34:34;;;;;;;7.90;2.90;;;;;;;27.04;48.56;100335.05;105889;1254;71420;-42
2023/06/19 06:37:02;;;;;;;9.50;2.90;;;;;;;27.15;48.34;100328.73;105874;1257;59637;-42
2023/06/19 06:39:33;;;;;;;7.90;3.10;;;;;;;27.28;47.71;100267.04;105900;1256;59653;-42
2023/06/19 06:42:01;;;;;;;14.00;3.00;;;;;;;27.28;47.53;100228.61;105890;1257;72989;-43
2023/06/19 06:44:30;;;;;;;18.90;2.90;;;;;;;27.33;47.42;100213.84;105896;1258;64016;-42
2023/06/19 06:46:58;;;;;;;16.10;3.40;;;;;;;27.34;47.45;100216.69;105890;1258;71406;-43
2023/06/19 06:49:25;;;;;;;9.30;3.30;;;;;;;27.35;47.54;100242.81;105845;1254;60407;-42
2023/06/19 06:51:53;;;;;;;18.80;3.10;;;;;;;27.33;48.15;100323.91;105884;1255;61132;-42
2023/06/19 06:54:24;;;;;;;10.40;3.70;;;;;;;27.39;47.42;100253.11;105878;1254;72550;-43
2023/06/19 06:56:56;;;;;;;22.00;4.00;;;;;;;27.30;47.53;100240.63;105922;1257;64973;-42
2023/06/19 06:59:25;;;;;;;24.60;4.20;;;;;;;27.27;47.41;100236.29;105895;1257;71423;-42
2023/06/19 07:01:54;;;;;;;17.80;3.50;;;;;;;27.42;47.64;100274.45;105885;1257;60550;-43
2023/06/19 07:04:22;;;;;;;12.40;3.20;;;;;;;27.55;48.17;100333.80;105890;1252;60524;-42
2023/06/19 07:06:53;;;;;;;7.00;3.10;;;;;;;27.70;46.77;100160.27;105886;1254;73765;-42
2023/06/19 07:09:23;;;;;;;7.80;3.10;;;;;;;27.82;47.10;100200.35;105872;1252;64821;-43
2023/06/19 07:11:52;;;;;;;12.90;2.90;;;;;;;27.84;45.60;100034.94;105772;1258;72646;-43
2023/06/19 07:14:20;;;;;;;6.10;3.30;;;;;;;27.80;44.53;99908.96;105677;1254;60741;-46
2023/06/19 07:16:49;;;;;;;11.10;3.30;;;;;;;27.78;44.92;99971.05;105865;1252;61212;-43
2023/06/19 07:19:17;;;;;;;6.80;3.10;;;;;;;27.77;45.45;100047.86;105886;1254;72619;-43
2023/06/19 07:21:45;;;;;;;15.70;3.40;;;;;;;27.81;46.45;100166.98;105829;1257;64021;-43
2023/06/19 07:24:13;;;;;;;5.50;3.40;;;;;;;27.94;46.67;100215.33;105694;1257;72692;-43
2023/06/19 07:26:41;;;;;;;8.20;3.00;;;;;;;28.09;45.74;100128.42;105856;1258;60489;-43
2023/06/19 07:29:10;;;;;;;11.90;3.20;;;;;;;28.22;46.27;100141.76;105880;1256;60322;-43
2023/06/19 07:31:38;;;;;;;10.10;3.00;;;;;;;28.35;46.04;100157.53;105921;1256;73802;-43
2023/06/19 07:34:06;;;;;;;7.10;3.30;;;;;;;28.40;45.49;100065.17;105857;1253;64005;-44
2023/06/19 07:36:34;;;;;;;7.60;3.00;;;;;;;28.43;45.88;100127.73;105868;1253;72662;-43
2023/06/19 07:39:02;;;;;;;7.90;3.60;;;;;;;28.49;45.94;100151.04;105881;1256;60495;-43
2023/06/19 07:41:30;;;;;;;6.70;3.30;;;;;;;28.59;43.80;99894.67;105899;1254;60329;-44
2023/06/19 07:43:58;;;;;;;7.60;3.50;;;;;;;28.58;41.85;99594.19;105873;1253;72590;-43
2023/06/19 07:46:27;;;;;;;14.30;3.40;;;;;;;28.54;40.79;99474.38;105929;1251;63960;-43
2023/06/19 07:48:54;;;;;;;10.60;3.20;;;;;;;28.56;41.10;99518.89;105891;1258;71414;-43
2023/06/19 07:51:23;;;;;;;8.70;3.20;;;;;;;28.58;41.43;99564.06;105879;1254;60592;-43
2023/06/19 07:53:50;;;;;;;8.50;3.00;;;;;;;28.61;40.80;99507.86;105873;1257;60652;-43
2023/06/19 07:56:18;;;;;;;5.90;3.40;;;;;;;28.66;40.75;99523.99;105857;1256;73814;-43
2023/06/19 07:58:46;;;;;;;12.30;2.90;;;;;;;28.70;40.07;99429.40;105889;1254;65387;-44
2023/06/19 08:01:14;;;;;;;4.40;3.20;;;;;;;28.74;40.98;99535.92;105861;1257;72002;-43
2023/06/19 08:03:43;;;;;;;5.90;3.10;;;;;;;28.85;41.05;99598.86;105871;1257;60457;-44
2023/06/19 08:06:11;;;;;;;10.30;3.60;;;;;;;28.90;39.27;99323.60;105886;1254;60348;-43
2023/06/19 08:08:39;;;;;;;11.10;3.50;;;;;;;28.79;38.47;99228.39;105921;1251;72654;-43
2023/06/19 08:11:07;;;;;;;4.50;3.40;;;;;;;28.61;39.49;99357.76;105846;1253;63933;-44
2023/06/19 08:13:35;;;;;;;7.20;3.10;;;;;;;28.63;38.32;99260.94;105852;1253;71441;-43
2023/06/19 08:16:03;;;;;;;6.20;3.40;;;;;;;28.62;39.04;99315.27;105883;1257;60629;-43
2023/06/19 08:18:31;;;;;;;14.10;3.30;;;;;;;28.70;40.71;99546.45;105891;1254;60620;-44
2023/06/19 08:20:58;;;;;;;5.10;3.10;;;;;;;28.92;40.87;99614.73;105917;1256;72629;-44
2023/06/19 08:23:27;;;;;;;5.30;2.90;;;;;;;29.13;40.16;99562.51;105953;1256;64004;-43
2023/06/19 08:25:55;;;;;;;9.20;3.80;;;;;;;29.16;39.08;99348.11;105881;1257;71407;-44
2023/06/19 08:28:23;;;;;;;11.20;3.00;;;;;;;29.19;39.19;99396.19;105899;1254;60514;-43
2023/06/19 08:30:51;;;;;;;8.40;2.90;;;;;;;29.16;39.08;99362.66;105905;1253;60470;-44
2023/06/19 08:33:19;;;;;;;7.50;3.00;;;;;;;29.10;38.02;99248.79;105910;1256;73866;-43
2023/06/19 08:35:48;;;;;;;3.70;2.90;;;;;;;29.05;38.88;99318.73;105841;1251;65401;-44
2023/06/19 08:38:15;;;;;;;7.50;3.10;;;;;;;29.11;38.95;99377.87;105864;1254;72613;-43
2023/06/19 08:40:43;;;;;;;7.20;2.80;;;;;;;29.08;37.50;99163.08;105844;1256;60528;-43
2023/06/19 08:43:11;;;;;;;7.10;2.70;;;;;;;28.89;38.35;99250.82;105905;1257;60439;-43
2023/06/19 08:45:40;;;;;;;9.30;3.00;;;;;;;28.85;38.98;99392.95;105888;1251;73795;-44
2023/06/19 08:48:08;;;;;;;4.50;2.80;;;;;;;28.87;38.45;99329.85;105840;1257;63924;-44
2023/06/19 08:50:41;;;;;;;8.80;2.90;;;;;;;28.97;38.41;99324.27;105708;1254;72659;-43
2023/06/19 08:53:08;;;;;;;39.60;4.30;;;;;;;29.17;38.95;99380.11;105864;1257;60431;-43
2023/06/19 08:55:36;;;;;;;10.50;3.30;;;;;;;29.37;37.94;99276.27;105940;1256;60486;-44
2023/06/19 08:58:04;;;;;;;9.80;3.60;;;;;;;29.43;37.61;99186.42;105847;1258;72129;-44
2023/06/19 09:00:31;;;;;;;9.40;2.80;;;;;;;29.40;37.36;99151.48;105865;1256;65766;-44
2023/06/19 09:03:01;;;;;;;3.70;2.60;;;;;;;29.37;37.09;99159.70;105867;1254;71448;-43
2023/06/19 09:05:43;;;;;;;8.60;2.90;;;;;;;29.21;35.81;98983.21;105974;1255;60469;-44
2023/06/19 09:08:15;;;;;;;5.10;3.00;;;;;;;29.01;37.12;99135.84;105872;1257;60431;-43
2023/06/19 09:11:04;;;;;;;7.50;2.20;;;;;;;29.10;39.04;99421.54;105885;1251;72548;-44
2023/06/19 09:13:32;;;;;;;3.00;2.60;;;;;;;29.34;36.24;99113.46;105875;1254;64007;-44
2023/06/19 09:16:06;;;;;;;6.60;2.40;;;;;;;29.27;35.67;98938.17;105730;1256;72742;-45
2023/06/19 09:18:44;;;;;;;4.40;2.60;;;;;;;29.03;34.60;98816.17;105931;1256;60466;-44
2023/06/19 09:21:23;;;;;;;3.30;2.50;;;;;;;28.77;34.93;98856.32;105704;1258;60316;-44
2023/06/19 09:23:53;;;;;;;5.90;2.60;;;;;;;28.71;36.97;99095.45;105883;1256;73720;-44
2023/06/19 09:26:29;;;;;;;7.40;2.50;;;;;;;28.88;37.86;99245.45;105902;1254;64115;-44
2023/06/19 09:28:57;;;;;;;8.80;2.90;;;;;;;29.14;38.72;99395.02;105701;1257;71435;-44
2023/06/19 09:31:33;;;;;;;6.60;2.20;;;;;;;29.35;36.40;99151.96;105872;1254;60984;-44
2023/06/19 09:34:01;;;;;;;3.50;2.20;;;;;;;29.28;34.99;98882.58;105898;1254;60394;-44
2023/06/19 09:36:30;;;;;;;4.20;2.00;;;;;;;29.27;37.24;99156.64;105881;1251;72588;-44
2023/06/19 09:38:59;;;;;;;5.80;2.80;;;;;;;29.47;34.57;98861.14;105590;1260;65669;-44
2023/06/19 09:41:31;;;;;;;6.00;2.50;;;;;;;29.55;34.82;98789.13;105756;1254;71619;-44
2023/06/19 09:43:59;;;;;;;7.30;2.70;;;;;;;29.72;34.08;98724.70;105864;1254;60421;-43
2023/06/19 09:46:31;;;;;;;8.00;2.50;;;;;;;29.75;35.36;98855.91;105881;1253;60508;-44
2023/06/19 09:49:01;;;;;;;7.50;2.20;;;;;;;29.86;35.78;98959.97;105844;1253;73893;-44
2023/06/19 09:51:34;;;;;;;2.20;2.00;;;;;;;30.03;33.50;98620.16;105861;1254;63900;-44
2023/06/19 09:54:04;;;;;;;5.20;2.50;;;;;;;30.13;33.34;98582.29;105861;1257;72675;-43
2023/06/19 09:56:31;;;;;;;13.80;2.70;;;;;;;30.23;33.01;98524.54;105833;1258;60533;-44
2023/06/19 09:58:59;;;;;;;7.90;2.40;;;;;;;30.12;32.67;98466.76;105687;1253;60550;-44
2023/06/19 10:01:29;;;;;;;2.10;2.00;;;;;;;30.00;33.56;98536.45;105688;1254;72570;-43
2023/06/19 10:04:08;;;;;;;4.80;2.30;;;;;;;30.03;35.47;98771.92;105899;1254;64460;-43
2023/06/19 10:06:43;;;;;;;2.80;2.00;;;;;;;30.32;35.03;98836.18;105876;1255;71394;-44
2023/06/19 10:09:11;;;;;;;5.30;2.40;;;;;;;30.56;33.28;98540.98;105866;1254;60507;-46
2023/06/19 10:11:52;;;;;;;7.30;2.40;;;;;;;30.57;32.94;98449.10;105769;1253;60395;-44
2023/06/19 10:14:20;;;;;;;7.30;2.50;;;;;;;30.42;33.62;98570.27;105625;1254;72662;-44
2023/06/19 10:16:48;;;;;;;7.80;2.50;;;;;;;30.37;32.76;98469.86;105866;1257;63923;-44
2023/06/19 10:19:17;;;;;;;5.40;2.10;;;;;;;30.28;31.81;98290.63;105745;1254;71354;-46
2023/06/19 10:21:53;;;;;;;4.80;1.90;;;;;;;30.21;32.69;98405.54;105829;1257;60524;-43
2023/06/19 10:24:20;;;;;;;8.40;2.40;;;;;;;30.19;34.90;98676.39;105860;1257;60619;-43
2023/06/19 10:26:59;;;;;;;4.90;2.60;;;;;;;30.38;34.64;98706.10;105700;1254;73774;-42
2023/06/19 10:29:37;;;;;;;3.20;2.50;;;;;;;30.61;34.30;98703.84;105897;1253;64655;-43
2023/06/19 10:32:06;;;;;;;13.30;2.20;;;;;;;30.63;31.58;98302.58;105736;1257;71559;-43
2023/06/19 10:34:34;;;;;;;6.50;1.90;;;;;;;30.52;31.89;98326.46;105874;1257;60549;-43
2023/06/19 10:37:04;;;;;;;3.30;1.80;;;;;;;30.53;32.24;98339.80;105820;1257;60355;-43
2023/06/19 10:39:32;;;;;;;6.40;1.50;;;;;;;30.52;33.60;98565.80;105892;1257;73804;-43
2023/06/19 10:42:00;;;;;;;6.40;2.20;;;;;;;30.61;33.04;98492.38;105872;1256;63925;-42
2023/06/19 10:44:29;;;;;;;13.70;2.40;;;;;;;30.58;33.42;98547.38;105906;1252;71453;-42
2023/06/19 10:46:56;;;;;;;9.10;2.30;;;;;;;30.64;33.36;98563.67;105851;1254;60418;-43
2023/06/19 10:49:24;;;;;;;13.90;1.90;;;;;;;30.75;34.67;98728.28;105841;1253;60329;-42
2023/06/19 11:48:25;;;;;;;;;;;;;;;31.05;31.41;98272.45;102990;1292;600408;-43
2023/06/19 11:50:53;;;;;;;3.60;1.40;;;;;;;31.10;33.66;98512.84;104917;1266;59346;-43
2023/06/19 11:53:22;;;;;;;6.40;1.50;;;;;;;31.28;33.23;98509.94;105126;1266;59340;-43
2023/06/19 11:55:53;;;;;;;6.30;1.70;;;;;;;31.50;32.81;98483.41;105090;1263;70998;-43
2023/06/19 11:58:20;;;;;;;6.80;1.70;;;;;;;31.52;31.00;98254.02;105088;1270;63523;-44
2023/06/19 12:00:49;;;;;;;3.40;1.90;;;;;;;31.13;31.01;98189.45;104875;1269;71419;-46
2023/06/19 12:03:16;;;;;;;3.50;1.60;;;;;;;30.91;31.20;98235.77;105224;1258;241822;-45
2023/06/19 12:05:44;;;;;;;7.90;1.40;;;;;;;30.88;31.16;98206.87;105412;1261;59326;-43
2023/06/19 12:08:12;;;;;;;1.90;1.40;;;;;;;30.89;31.63;98293.48;105499;1263;71620;-43
2023/06/19 12:10:40;;;;;;;10.60;1.50;;;;;;;30.92;32.67;98385.33;105381;1257;63566;-43
2023/06/19 12:13:08;;;;;;;2.00;1.50;;;;;;;31.02;32.00;98352.79;105320;1257;73078;-44
2023/06/19 12:15:35;;;;;;;8.30;2.00;;;;;;;31.04;33.00;98461.66;105482;1261;60009;-43